Time;durP1;ratioP1;P1;durP2;ratioP2;P2;SDS_P1;SDS_P2;PMS_P1;PMS_P2;Temp;Humidity;BMP_temperature;BMP_pressure;BME280_temperature;BME280_humidity;BME280_pressure;Samples;Min_cycle;Max_cycle;Signal;HPM_P1;HPM_P2
2023/10/03 00:00:56;;;;;;;33.53;17.15;;;19.40;66.90;;;20.84;50.92;97736.56;5032275;28;20493;-63
2023/10/03 00:03:24;;;;;;;32.92;16.15;;;19.40;66.80;;;20.80;50.77;97738.88;5031278;28;20141;-65
2023/10/03 00:05:54;;;;;;;26.75;13.60;;;19.30;67.00;;;20.77;50.88;97736.63;5030383;28;20055;-65
2023/10/03 00:08:23;;;;;;;35.58;18.92;;;19.30;67.30;;;20.73;51.13;97735.41;5032234;28;20049;-65
2023/10/03 00:10:50;;;;;;;33.80;17.13;;;19.20;67.20;;;20.67;50.97;97736.31;5030567;28;20386;-65
2023/10/03 00:13:19;;;;;;;33.92;16.45;;;19.20;67.00;;;20.72;51.22;97743.75;5030714;28;20068;-64
2023/10/03 00:15:48;;;;;;;29.40;16.05;;;19.30;66.70;;;20.71;51.06;97751.03;5031716;28;20049;-64
2023/10/03 00:18:16;;;;;;;28.30;15.32;;;19.20;66.70;;;20.79;50.59;97750.75;5031656;28;20045;-64
2023/10/03 00:20:44;;;;;;;30.45;15.70;;;19.30;66.10;;;20.79;50.46;97741.81;5038823;28;20049;-65
2023/10/03 00:23:12;;;;;;;29.40;16.17;;;19.40;66.00;;;20.82;50.81;97744.91;5031911;28;20040;-66
2023/10/03 00:25:39;;;;;;;31.77;17.52;;;19.50;65.60;;;20.79;50.72;97741.81;5031822;28;20057;-63
2023/10/03 00:28:07;;;;;;;30.55;15.07;;;19.40;65.30;;;20.80;50.69;97740.75;5030150;28;20038;-63
2023/10/03 00:30:39;;;;;;;31.13;17.08;;;19.40;65.40;;;20.78;51.02;97742.84;5031676;28;20080;-62
2023/10/03 00:33:11;;;;;;;28.15;16.60;;;19.40;65.50;;;20.64;51.00;97734.88;5030332;28;20064;-63
2023/10/03 00:35:40;;;;;;;34.08;16.92;;;19.30;66.00;;;20.55;51.24;97735.34;5029665;28;20156;-65
2023/10/03 00:38:13;;;;;;;37.00;18.15;;;19.20;66.40;;;20.44;51.56;97731.50;5006866;28;20439;-62
2023/10/03 00:40:49;;;;;;;30.45;16.65;;;19.10;67.20;;;20.48;51.73;97729.19;5030509;28;20052;-64
2023/10/03 00:43:17;;;;;;;25.52;14.38;;;19.00;67.20;;;20.44;51.79;97729.63;5039972;28;20094;-63
2023/10/03 00:45:48;;;;;;;31.40;16.75;;;19.00;67.40;;;20.50;51.59;97727.91;5030692;28;20054;-63
2023/10/03 00:48:17;;;;;;;31.00;16.50;;;19.00;67.30;;;20.44;51.59;97726.91;5029964;28;20216;-63
2023/10/03 00:50:45;;;;;;;29.58;15.70;;;19.00;67.70;;;20.41;51.51;97719.28;5029737;28;20049;-63
2023/10/03 00:53:14;;;;;;;28.63;16.23;;;18.90;67.90;;;20.36;52.01;97716.41;5030068;28;20049;-63
2023/10/03 00:55:43;;;;;;;35.42;17.58;;;18.90;67.90;;;20.38;51.94;97718.88;5029114;28;20053;-63
2023/10/03 01:00:51;;;;;;;34.30;17.73;;;18.80;68.00;;;20.22;52.39;97710.28;5030616;28;20046;-62
2023/10/03 01:03:38;;;;;;;36.97;16.52;;;18.80;68.20;;;20.20;52.18;97704.28;5024123;28;20444;-63
2023/10/03 01:06:12;;;;;;;31.20;16.13;;;18.80;68.50;;;20.19;52.41;97702.59;5029475;28;20408;-63
2023/10/03 01:08:47;;;;;;;26.67;14.65;;;18.70;68.60;;;20.15;52.25;97703.28;5029855;28;20045;-62
2023/10/03 01:11:17;;;;;;;31.30;16.85;;;18.70;68.80;;;20.19;52.05;97697.22;5023507;28;20041;-62
2023/10/03 01:13:56;;;;;;;28.85;15.32;;;18.70;68.80;;;20.20;51.83;97696.16;5029583;28;20049;-63
2023/10/03 01:16:31;;;;;;;30.27;15.73;;;18.70;68.60;;;20.22;51.76;97691.38;5031484;28;20048;-63
2023/10/03 01:21:35;;;;;;;32.15;15.18;;;18.80;67.70;;;20.17;52.16;97688.50;5031181;28;20045;-63
2023/10/03 01:24:08;;;;;;;29.50;14.63;;;18.70;68.30;;;20.15;52.12;97696.00;5030809;28;20046;-63
2023/10/03 01:26:36;;;;;;;33.55;15.95;;;18.60;68.60;;;20.12;51.93;97693.72;5030638;28;20049;-63
2023/10/03 01:29:04;;;;;;;29.92;16.15;;;18.60;68.70;;;20.03;52.32;97698.59;5037571;28;20054;-63
2023/10/03 01:31:32;;;;;;;34.80;16.42;;;18.60;68.70;;;20.08;51.96;97691.69;5030802;28;20049;-63
2023/10/03 01:34:01;;;;;;;25.90;13.98;;;18.60;68.70;;;20.04;52.03;97684.03;5030417;28;20370;-63
2023/10/03 01:36:29;;;;;;;30.27;15.27;;;18.50;69.00;;;19.96;52.42;97681.59;5029003;28;20056;-63
2023/10/03 01:38:57;;;;;;;29.70;14.48;;;18.40;69.30;;;19.91;52.40;97680.59;5030849;28;20112;-63
2023/10/03 01:41:25;;;;;;;31.15;15.43;;;18.30;69.30;;;19.91;52.45;97676.06;5029785;28;20049;-62
2023/10/03 01:43:52;;;;;;;28.08;14.48;;;18.30;69.30;;;19.81;52.45;97679.25;5037800;28;20076;-63
2023/10/03 01:46:20;;;;;;;29.08;14.40;;;18.30;69.50;;;19.71;52.83;97672.63;5029562;28;20053;-63
2023/10/03 01:48:48;;;;;;;28.40;14.43;;;18.20;69.60;;;19.66;52.87;97665.19;5037753;28;20053;-63
2023/10/03 01:51:16;;;;;;;29.58;14.68;;;18.20;69.50;;;19.67;52.72;97664.13;5022686;28;20052;-62
2023/10/03 01:53:45;;;;;;;32.90;15.10;;;18.30;69.30;;;19.65;52.79;97658.94;5030607;28;20045;-62
2023/10/03 01:56:13;;;;;;;28.20;14.80;;;18.30;69.70;;;19.63;52.63;97657.53;5036867;28;20068;-62
2023/10/03 01:58:40;;;;;;;29.33;14.32;;;18.30;68.50;;;19.63;52.50;97662.91;5029140;28;20053;-62
2023/10/03 02:01:10;;;;;;;22.33;11.73;;;18.30;67.80;;;19.66;52.37;97655.22;5029495;28;20057;-62
2023/10/03 02:03:39;;;;;;;29.42;14.68;;;18.30;67.60;;;19.78;51.91;97658.06;5030534;28;20041;-62
2023/10/03 02:06:07;;;;;;;27.55;12.82;;;18.50;67.10;;;19.88;51.78;97652.16;5029155;28;20060;-62
2023/10/03 02:08:35;;;;;;;27.13;13.95;;;18.50;66.40;;;19.87;51.57;97650.50;5033172;28;20413;-62
2023/10/03 02:11:11;;;;;;;25.58;13.82;;;18.50;66.50;;;19.88;51.59;97645.94;5032206;28;20052;-62
2023/10/03 02:13:40;;;;;;;;;;;18.50;66.40;;;19.79;51.80;97645.38;5034889;28;20070;-62
2023/10/03 02:16:10;;;;;;;26.25;12.30;;;18.50;66.50;;;19.83;51.45;97635.78;5033649;28;20368;-62
2023/10/03 02:18:40;;;;;;;25.85;12.57;;;18.40;66.50;;;19.88;51.51;97641.34;5016898;28;20049;-63
2023/10/03 02:21:09;;;;;;;23.83;13.20;;;18.50;66.30;;;19.89;51.18;97632.22;5041247;28;20053;-63
2023/10/03 02:23:36;;;;;;;26.88;13.43;;;18.50;66.10;;;19.95;51.20;97633.19;5033806;28;20523;-63
2023/10/03 02:26:11;;;;;;;26.17;12.20;;;18.60;65.40;;;19.92;51.04;97625.53;5032730;28;20045;-63
2023/10/03 02:28:40;;;;;;;22.70;12.15;;;18.60;65.30;;;19.97;51.09;97626.53;5034080;28;20033;-63
2023/10/03 02:31:09;;;;;;;27.02;13.25;;;18.70;65.00;;;19.99;50.52;97624.44;5033816;28;20050;-63
2023/10/03 02:33:43;;;;;;;25.77;13.60;;;18.70;65.00;;;20.06;50.74;97622.50;5031857;28;20406;-63
2023/10/03 02:36:11;;;;;;;25.92;12.88;;;18.80;64.60;;;20.06;50.70;97618.94;5033349;28;20408;-63
2023/10/03 02:38:40;;;;;;;24.40;11.90;;;18.80;64.70;;;20.10;50.67;97616.63;5033907;28;20523;-63
2023/10/03 02:41:11;;;;;;;20.38;10.90;;;18.80;64.40;;;20.11;50.52;97621.00;5033712;28;20049;-63
2023/10/03 02:43:43;;;;;;;22.95;12.73;;;18.80;65.00;;;20.06;50.54;97605.44;5032509;28;20496;-63
2023/10/03 02:46:15;;;;;;;23.90;13.07;;;18.80;64.30;;;20.08;50.80;97605.22;5031876;28;20064;-63
2023/10/03 02:48:48;;;;;;;23.23;12.48;;;18.80;64.20;;;20.13;50.32;97602.69;5033963;28;20033;-64
2023/10/03 02:51:16;;;;;;;26.55;14.10;;;18.80;64.20;;;20.10;50.74;97597.72;5032634;28;20050;-62
2023/10/03 02:53:45;;;;;;;23.45;12.30;;;18.80;64.30;;;20.06;50.41;97602.75;5032221;28;20056;-63
2023/10/03 02:56:15;;;;;;;23.25;12.27;;;18.80;64.30;;;20.13;50.46;97600.00;5033370;28;20057;-63
2023/10/03 02:58:43;;;;;;;24.17;13.02;;;18.80;64.00;;;20.17;50.33;97595.78;5040375;28;20042;-63
2023/10/03 03:01:12;;;;;;;24.25;12.32;;;18.80;63.90;;;20.16;50.26;97604.94;5032377;28;20045;-63
2023/10/03 03:03:42;;;;;;;25.20;12.63;;;18.80;64.00;;;20.16;50.11;97602.22;5040627;28;20045;-63
2023/10/03 03:06:16;;;;;;;23.50;13.65;;;18.80;63.60;;;20.15;50.05;97612.22;5039572;28;20041;-63
2023/10/03 03:08:45;;;;;;;19.95;10.63;;;18.80;62.90;;;20.17;49.91;97610.13;5040545;28;20045;-63
2023/10/03 03:11:18;;;;;;;21.60;11.43;;;18.80;63.00;;;20.18;49.72;97609.09;5031447;28;20540;-63
2023/10/03 03:13:45;;;;;;;22.33;12.35;;;18.80;62.60;;;20.19;49.42;97608.00;5040474;28;20046;-63
2023/10/03 03:16:14;;;;;;;19.60;10.75;;;18.80;63.00;;;20.20;49.53;97611.53;5032532;28;20041;-65
2023/10/03 03:18:42;;;;;;;18.70;11.13;;;18.80;63.10;;;20.21;49.57;97607.78;5032319;28;20041;-63
2023/10/03 03:21:14;;;;;;;23.95;12.45;;;18.80;63.80;;;20.20;49.47;97609.69;5032997;28;20045;-64
2023/10/03 03:24:00;;;;;;;20.83;11.82;;;18.80;63.00;;;20.18;49.42;97605.53;5031830;28;20085;-63
2023/10/03 03:26:36;;;;;;;23.67;11.55;;;18.80;62.80;;;20.10;49.26;97598.53;5024866;28;20044;-63
2023/10/03 03:29:20;;;;;;;19.90;11.60;;;18.70;62.50;;;20.03;49.59;97598.63;5032943;28;20040;-63
2023/10/03 03:31:50;;;;;;;19.38;11.43;;;18.60;62.60;;;19.93;49.52;97598.31;5032821;28;20045;-64
2023/10/03 03:34:18;;;;;;;22.83;10.77;;;18.50;62.90;;;20.01;49.18;97602.59;5032608;28;20037;-63
2023/10/03 03:36:46;;;;;;;25.13;11.25;;;18.60;62.30;;;20.08;49.23;97602.53;5032221;28;20045;-64
2023/10/03 03:39:16;;;;;;;26.92;11.30;;;18.70;62.00;;;20.00;49.10;97595.53;5032407;28;20377;-65
2023/10/03 03:41:43;;;;;;;21.65;10.90;;;18.60;62.00;;;19.97;49.19;97599.50;5031640;28;20381;-64
2023/10/03 03:44:12;;;;;;;18.13;10.02;;;18.60;61.80;;;20.03;48.95;97604.03;5032311;28;20394;-64
2023/10/03 03:46:43;;;;;;;22.33;9.80;;;18.70;62.80;;;20.09;48.87;97596.09;5030540;28;20052;-64
2023/10/03 03:49:12;;;;;;;18.65;11.02;;;18.70;61.50;;;20.05;48.59;97596.53;5032513;28;20424;-64
2023/10/03 03:51:40;;;;;;;18.63;9.93;;;18.70;61.70;;;20.05;48.58;97601.91;5031087;28;20041;-63
2023/10/03 03:54:12;;;;;;;18.63;11.27;;;18.60;61.50;;;20.08;48.53;97603.34;5032096;28;20041;-64
2023/10/03 03:56:40;;;;;;;19.98;10.00;;;18.70;61.30;;;20.09;48.34;97596.09;5031925;28;20038;-65
2023/10/03 03:59:09;;;;;;;21.77;10.75;;;18.70;60.40;;;20.13;47.96;97600.81;5031908;28;20037;-64
2023/10/03 04:01:37;;;;;;;16.73;9.20;;;18.80;60.70;;;20.20;47.83;97598.03;5032251;28;20481;-63
2023/10/03 04:04:07;;;;;;;19.25;8.98;;;18.80;60.00;;;20.12;48.19;97596.44;5014414;28;20037;-64
2023/10/03 04:06:35;;;;;;;19.23;9.93;;;18.80;60.50;;;20.10;48.12;97595.84;5031795;28;20397;-64
2023/10/03 04:09:05;;;;;;;15.73;8.70;;;18.70;60.30;;;20.14;47.96;97585.41;5032084;28;20385;-63
2023/10/03 04:11:36;;;;;;;14.20;8.15;;;18.80;60.00;;;20.15;47.67;97585.19;5032075;28;20044;-64
2023/10/03 04:14:05;;;;;;;21.20;10.05;;;18.70;59.90;;;20.18;47.71;97584.75;5031843;28;20045;-63
2023/10/03 04:16:39;;;;;;;17.67;8.65;;;18.80;59.90;;;20.20;47.54;97587.22;5039280;28;20046;-63
2023/10/03 04:19:08;;;;;;;19.63;9.65;;;18.70;59.80;;;20.25;47.39;97579.25;5031726;28;20037;-64
2023/10/03 04:21:39;;;;;;;16.50;9.02;;;18.80;59.30;;;20.31;47.27;97589.16;5030630;28;20046;-64
2023/10/03 04:24:11;;;;;;;17.27;8.65;;;18.90;58.70;;;20.32;46.93;97585.44;5031676;28;20041;-63
2023/10/03 04:26:42;;;;;;;15.43;8.13;;;18.90;58.50;;;20.36;46.49;97583.13;5030220;28;20044;-63
2023/10/03 04:29:13;;;;;;;15.35;8.10;;;19.00;58.30;;;20.37;46.29;97584.75;5031491;28;20056;-64
2023/10/03 04:31:44;;;;;;;14.68;7.93;;;19.00;58.10;;;20.43;46.43;97587.38;5029683;28;20050;-64
2023/10/03 04:34:16;;;;;;;16.98;9.20;;;19.00;58.20;;;20.47;46.36;97587.75;5030888;28;20508;-64
2023/10/03 04:36:45;;;;;;;15.73;8.55;;;19.00;58.30;;;20.49;46.38;97593.78;5031335;28;20393;-64
2023/10/03 04:39:13;;;;;;;14.88;9.00;;;19.00;58.40;;;20.44;46.63;97586.31;5031459;28;20053;-63
2023/10/03 04:41:43;;;;;;;16.50;8.48;;;18.90;58.80;;;20.43;46.77;97586.53;5030063;28;20512;-64
2023/10/03 04:44:16;;;;;;;15.60;8.80;;;18.90;58.90;;;20.33;46.66;97584.38;5031522;28;20409;-64
2023/10/03 04:46:48;;;;;;;15.93;9.07;;;18.80;59.30;;;20.35;46.97;97584.16;5030017;28;20527;-65
2023/10/03 04:49:16;;;;;;;13.93;7.53;;;18.70;59.60;;;20.27;47.16;97583.38;5031468;28;20053;-65
2023/10/03 04:51:47;;;;;;;14.05;8.80;;;18.60;59.80;;;20.24;47.27;97585.75;5031449;28;20052;-63
2023/10/03 04:54:16;;;;;;;13.80;8.90;;;18.60;60.30;;;20.20;47.38;97571.84;5014242;28;20049;-62
2023/10/03 04:56:45;;;;;;;15.88;8.38;;;18.50;60.50;;;20.19;47.16;97580.16;5029837;28;20046;-63
2023/10/03 04:59:13;;;;;;;14.85;8.73;;;18.50;60.40;;;20.17;47.14;97579.56;5030960;28;20033;-62
2023/10/03 05:01:41;;;;;;;15.02;8.75;;;18.50;60.30;;;20.17;47.38;97583.09;5030135;28;20037;-62
2023/10/03 05:04:12;;;;;;;12.63;6.65;;;18.60;60.20;;;20.20;47.26;97574.53;5031201;28;20057;-63
2023/10/03 05:06:40;;;;;;;14.13;7.57;;;18.60;59.70;;;20.21;47.07;97573.47;5030564;28;20385;-63
2023/10/03 05:09:08;;;;;;;13.27;7.07;;;18.60;59.50;;;20.23;46.81;97576.78;5030872;28;20041;-63
2023/10/03 05:11:36;;;;;;;13.98;6.93;;;18.70;59.20;;;20.27;46.76;97574.47;5030885;28;20041;-62
2023/10/03 05:14:04;;;;;;;14.57;7.50;;;18.70;59.20;;;20.31;46.75;97577.53;5031264;28;20045;-62
2023/10/03 05:16:31;;;;;;;10.43;6.28;;;18.80;59.00;;;20.34;46.42;97585.22;5030721;28;20485;-61
2023/10/03 05:18:59;;;;;;;11.65;6.78;;;18.80;58.80;;;20.35;46.64;97586.84;5030796;28;20048;-61
2023/10/03 05:21:27;;;;;;;14.18;7.32;;;18.80;58.70;;;20.36;46.53;97585.81;5030826;28;20041;-61
2023/10/03 05:23:55;;;;;;;12.23;7.85;;;18.80;58.70;;;20.37;46.22;97579.34;5030925;28;20042;-61
2023/10/03 05:26:25;;;;;;;14.68;7.70;;;18.80;58.50;;;20.39;46.26;97585.34;5030831;28;20402;-62
2023/10/03 05:28:55;;;;;;;13.27;7.60;;;18.80;58.50;;;20.45;46.34;97589.84;5030861;28;20042;-62
2023/10/03 05:31:23;;;;;;;14.55;7.47;;;18.90;58.40;;;20.46;46.32;97584.22;5030767;28;20045;-62
2023/10/03 05:33:51;;;;;;;13.30;7.53;;;19.00;58.00;;;20.48;46.24;97586.69;5030161;28;20057;-62
2023/10/03 05:36:19;;;;;;;13.88;8.00;;;19.00;58.10;;;20.50;45.79;97598.13;5028691;28;20080;-62
2023/10/03 05:38:47;;;;;;;9.23;6.03;;;19.00;57.70;;;20.53;45.52;97596.81;5030798;28;20425;-62
2023/10/03 05:41:23;;;;;;;11.80;6.35;;;19.10;57.30;;;20.57;45.99;97603.44;5029867;28;20049;-62
2023/10/03 05:43:52;;;;;;;9.85;6.65;;;19.20;56.60;;;20.60;45.62;97598.44;5034755;28;20046;-62
2023/10/03 05:46:19;;;;;;;11.20;6.10;;;19.20;56.60;;;20.63;45.51;97594.47;5034364;28;20052;-62
2023/10/03 05:48:47;;;;;;;9.82;5.97;;;19.20;56.10;;;20.66;45.34;97596.69;5033283;28;20052;-63
2023/10/03 05:51:15;;;;;;;13.75;5.57;;;19.30;56.20;;;20.64;44.67;97596.09;5034670;28;20041;-63
2023/10/03 05:53:42;;;;;;;10.13;5.68;;;19.40;54.90;;;20.75;44.97;97595.34;5034519;28;20046;-63
2023/10/03 05:56:11;;;;;;;8.32;5.38;;;19.60;54.90;;;20.81;44.69;97596.31;5034232;28;20057;-63
2023/10/03 05:58:38;;;;;;;10.23;6.13;;;19.70;54.60;;;20.90;44.42;97599.53;5025347;28;20536;-62
2023/10/03 06:01:06;;;;;;;10.23;5.78;;;19.80;54.30;;;20.97;44.58;97600.25;5034972;28;20046;-63
2023/10/03 06:03:34;;;;;;;14.00;5.70;;;19.80;53.70;;;21.02;44.57;97597.72;5034619;28;20444;-63
2023/10/03 06:06:01;;;;;;;9.45;5.80;;;19.90;54.10;;;21.07;44.24;97607.84;5032625;28;20044;-63
2023/10/03 06:08:32;;;;;;;11.35;6.13;;;20.00;53.70;;;21.11;44.23;97598.19;5034169;28;20041;-64
2023/10/03 06:11:02;;;;;;;9.98;4.97;;;20.00;53.40;;;21.18;43.85;97607.88;5033267;28;20048;-62
2023/10/03 06:13:30;;;;;;;8.93;6.13;;;20.00;53.30;;;21.22;43.88;97609.06;5034133;28;20054;-63
2023/10/03 06:15:59;;;;;;;9.88;5.80;;;20.10;53.50;;;21.27;44.04;97611.09;5032750;28;20072;-63
2023/10/03 06:18:30;;;;;;;9.77;5.53;;;20.20;53.50;;;21.30;43.77;97605.19;5033905;28;20045;-63
2023/10/03 06:20:57;;;;;;;11.18;6.15;;;20.10;53.30;;;21.33;44.04;97610.16;5025378;28;20040;-63
2023/10/03 06:23:26;;;;;;;10.65;6.78;;;20.20;53.30;;;21.35;43.67;97605.34;5034058;28;20052;-63
2023/10/03 06:25:54;;;;;;;15.20;5.68;;;20.20;53.20;;;21.40;43.84;97610.91;5034476;28;20044;-61
2023/10/03 06:28:21;;;;;;;9.82;5.45;;;20.30;53.00;;;21.43;43.61;97607.75;5034107;28;20056;-63
2023/10/03 06:30:51;;;;;;;8.40;5.75;;;20.30;52.90;;;21.51;43.25;97614.72;5034032;28;20037;-65
2023/10/03 06:33:19;;;;;;;9.13;5.28;;;20.40;52.70;;;21.56;43.12;97617.56;5032009;28;20041;-64
2023/10/03 06:35:51;;;;;;;8.73;5.38;;;20.50;52.60;;;21.63;43.44;97612.03;5032048;28;20041;-64
2023/10/03 06:38:23;;;;;;;10.98;5.55;;;20.60;52.00;;;21.66;43.29;97611.56;5033468;28;20398;-62
2023/10/03 06:40:51;;;;;;;10.70;6.75;;;20.60;52.20;;;21.72;43.00;97613.34;5032770;28;20056;-64
2023/10/03 06:43:19;;;;;;;9.82;5.50;;;20.70;52.10;;;21.79;42.86;97619.47;5033446;28;20041;-65
2023/10/03 06:45:47;;;;;;;9.85;5.07;;;20.80;51.70;;;21.83;42.95;97611.72;5033658;28;20041;-66
2023/10/03 06:48:15;;;;;;;8.95;5.53;;;20.80;51.90;;;21.91;42.93;97613.25;5032259;28;20448;-65
2023/10/03 06:50:43;;;;;;;10.73;5.22;;;20.90;51.90;;;21.95;42.68;97611.72;5025046;28;20425;-65
2023/10/03 06:53:13;;;;;;;9.30;5.65;;;21.00;51.80;;;22.04;42.86;97610.28;5031859;28;20420;-67
2023/10/03 06:55:41;;;;;;;9.05;5.72;;;21.00;51.70;;;22.09;42.81;97615.84;5033257;28;20535;-66
2023/10/03 06:58:10;;;;;;;9.02;5.00;;;21.10;51.10;;;22.18;42.67;97625.28;5032892;28;20056;-66
2023/10/03 07:00:38;;;;;;;8.40;5.35;;;21.20;50.90;;;22.16;42.14;97621.97;5033487;28;20717;-66
2023/10/03 07:03:06;;;;;;;11.20;5.63;;;21.30;50.20;;;22.28;42.28;97615.75;5031758;28;20041;-65
2023/10/03 07:05:35;;;;;;;9.38;5.07;;;21.50;50.20;;;22.35;42.11;97613.72;5032020;28;20049;-66
2023/10/03 07:08:04;;;;;;;9.02;4.93;;;21.50;50.00;;;22.49;41.88;97614.28;5032719;28;20138;-65
2023/10/03 07:10:32;;;;;;;7.55;4.88;;;21.60;50.20;;;22.52;41.86;97619.25;5033047;28;20053;-65
2023/10/03 07:13:01;;;;;;;8.65;4.97;;;21.70;49.20;;;22.54;41.60;97617.13;5031587;28;20049;-66
2023/10/03 07:15:29;;;;;;;7.60;5.18;;;21.80;49.10;;;22.64;41.55;97616.50;5031160;28;20425;-65
2023/10/03 07:17:57;;;;;;;10.77;5.78;;;21.80;49.30;;;22.71;41.50;97614.50;5032850;28;20041;-66
2023/10/03 07:20:25;;;;;;;7.45;4.53;;;21.90;49.40;;;22.79;41.44;97616.81;5031541;28;20417;-67
2023/10/03 07:22:53;;;;;;;11.20;6.18;;;22.00;49.50;;;22.88;41.49;97620.00;5032650;28;20038;-65
2023/10/03 07:25:21;;;;;;;8.38;5.28;;;22.00;49.50;;;22.93;41.44;97611.94;5030721;28;20046;-66
2023/10/03 07:27:49;;;;;;;8.55;5.07;;;22.10;49.50;;;22.99;41.58;97617.25;5032560;28;20492;-66
2023/10/03 07:30:16;;;;;;;8.07;5.20;;;22.20;49.50;;;23.12;41.62;97615.31;5032737;28;20517;-66
2023/10/03 07:32:45;;;;;;;7.97;5.43;;;22.20;50.00;;;23.21;41.66;97613.06;5032424;28;20052;-66
2023/10/03 07:35:16;;;;;;;7.78;5.18;;;22.30;50.20;;;23.28;41.81;97614.53;5032621;28;20041;-67
2023/10/03 07:37:45;;;;;;;7.93;5.75;;;22.30;50.10;;;23.34;41.82;97613.59;5030916;28;20497;-68
2023/10/03 07:40:12;;;;;;;9.57;5.30;;;22.40;50.20;;;23.42;41.78;97619.66;5032499;28;20037;-68
2023/10/03 07:42:40;;;;;;;7.72;5.22;;;22.50;50.10;;;23.44;41.71;97623.81;5032430;28;20447;-71
2023/10/03 07:45:09;;;;;;;8.98;5.88;;;22.70;49.80;;;23.56;41.84;97627.25;5032309;28;20041;-68
2023/10/03 07:47:37;;;;;;;9.60;4.93;;;22.80;49.80;;;23.66;41.80;97628.53;5030891;28;20052;-66
2023/10/03 07:50:05;;;;;;;8.30;4.88;;;22.90;50.00;;;23.62;42.02;97622.75;5031181;28;20041;-69
2023/10/03 07:52:34;;;;;;;8.63;5.68;;;23.10;49.30;;;23.71;41.86;97624.00;5032108;28;20064;-69
2023/10/03 07:55:03;;;;;;;8.23;4.80;;;23.30;49.90;;;23.89;41.86;97630.28;5031440;28;20053;-71
2023/10/03 07:57:31;;;;;;;7.88;5.20;;;23.30;49.30;;;23.98;41.72;97624.19;5031796;28;20049;-68
2023/10/03 07:59:59;;;;;;;8.95;5.40;;;23.30;49.20;;;24.11;41.78;97627.63;5032147;28;20489;-69
2023/10/03 08:02:32;;;;;;;8.10;5.50;;;23.40;49.70;;;24.07;41.85;97623.75;5030699;28;20053;-69
2023/10/03 08:05:02;;;;;;;7.55;5.18;;;23.50;49.40;;;24.25;41.64;97628.09;5032153;28;20410;-69
2023/10/03 08:07:31;;;;;;;8.50;4.80;;;23.50;49.70;;;24.21;41.65;97630.50;5031546;28;20046;-68
2023/10/03 08:10:03;;;;;;;7.72;5.45;;;23.60;49.20;;;24.32;41.67;97628.75;5024052;28;20112;-70
2023/10/03 08:12:34;;;;;;;7.00;4.60;;;23.70;49.60;;;24.28;41.56;97631.16;5030424;28;20050;-69
2023/10/03 08:15:16;;;;;;;8.52;5.20;;;23.70;48.90;;;24.38;41.66;97639.44;5030484;28;20493;-67
2023/10/03 08:17:49;;;;;;;9.75;5.53;;;23.80;49.30;;;24.48;41.76;97632.50;5031275;28;20057;-69
2023/10/03 08:20:18;;;;;;;8.27;5.70;;;23.70;49.90;;;24.52;41.80;97636.41;5047076;28;20048;-69
2023/10/03 08:22:53;;;;;;;7.70;5.72;;;23.80;49.80;;;24.56;41.95;97637.53;5030375;28;20076;-69
2023/10/03 08:25:23;;;;;;;9.50;6.40;;;23.90;49.90;;;24.62;41.81;97633.84;5031495;28;20052;-66
2023/10/03 08:27:52;;;;;;;9.85;5.65;;;23.90;50.00;;;24.58;42.13;97629.94;5031481;28;20060;-64
2023/10/03 08:30:28;;;;;;;10.70;5.50;;;23.90;50.20;;;24.66;41.62;97639.56;5031459;28;20056;-66
2023/10/03 08:33:06;;;;;;;9.23;5.75;;;23.90;50.00;;;24.64;41.89;97637.13;5023109;28;20531;-65
2023/10/03 08:35:39;;;;;;;8.70;4.65;;;23.90;49.90;;;24.76;41.79;97645.19;5030427;28;20117;-65
2023/10/03 08:38:10;;;;;;;9.10;5.93;;;23.90;50.10;;;24.77;41.66;97638.63;5031355;28;20205;-65
2023/10/03 08:40:49;;;;;;;9.40;5.80;;;23.90;49.90;;;24.79;41.49;97633.75;5030267;28;20429;-64
2023/10/03 08:43:25;;;;;;;9.02;5.47;;;24.00;49.70;;;24.90;41.17;97642.91;5031247;28;20052;-63
2023/10/03 08:45:57;;;;;;;6.80;5.05;;;24.10;49.20;;;24.94;41.27;97644.84;5021989;28;20045;-63
2023/10/03 08:48:29;;;;;;;10.40;5.38;;;24.20;49.00;;;25.02;41.30;97654.47;5031365;28;20052;-63
2023/10/03 08:50:58;;;;;;;11.10;5.45;;;24.20;49.50;;;25.06;41.27;97652.06;5030257;28;20397;-64
2023/10/03 08:53:31;;;;;;;9.77;5.20;;;24.20;49.30;;;25.08;41.31;97649.91;5031123;28;20049;-62
2023/10/03 08:55:59;;;;;;;7.75;4.80;;;24.20;49.30;;;25.13;41.05;97648.06;5029905;28;20045;-63
2023/10/03 08:58:28;;;;;;;6.55;5.07;;;24.20;49.70;;;25.11;41.24;97663.84;5030026;28;20045;-59
2023/10/03 09:01:01;;;;;;;8.85;4.80;;;24.30;48.80;;;25.03;40.66;97647.97;5029423;28;20041;-60
2023/10/03 09:03:47;;;;;;;8.70;5.68;;;24.40;47.70;;;25.12;40.70;97640.13;5029776;28;20045;-63
2023/10/03 09:06:22;;;;;;;8.25;5.35;;;24.40;48.10;;;25.19;40.42;97651.66;5024243;28;20049;-62
2023/10/03 09:08:51;;;;;;;;;;;24.50;48.00;;;25.09;40.54;97638.75;5031200;28;20468;-62
2023/10/03 09:11:20;;;;;;;8.88;4.88;;;24.50;48.40;;;25.19;40.71;97639.97;5029555;28;20019;-62
2023/10/03 09:13:49;;;;;;;9.23;5.53;;;24.60;47.70;;;25.34;40.31;97642.88;5030846;28;20045;-64
2023/10/03 09:16:19;;;;;;;8.48;4.95;;;24.60;47.80;;;25.38;40.34;97646.72;5029735;28;20499;-63
2023/10/03 09:18:56;;;;;;;7.60;5.35;;;24.70;47.60;;;25.43;39.85;97648.69;5029882;28;20042;-63
2023/10/03 09:21:25;;;;;;;8.13;4.70;;;24.80;46.80;;;25.52;40.12;97642.50;5030778;28;20042;-64
2023/10/03 09:24:01;;;;;;;7.75;5.32;;;24.80;47.30;;;25.54;39.95;97650.44;5030644;28;20040;-64
2023/10/03 09:26:54;;;;;;;10.18;4.95;;;24.80;46.70;;;25.59;39.47;97645.03;5030305;28;20493;-63
2023/10/03 09:29:30;;;;;;;7.78;4.53;;;25.00;45.70;;;25.68;39.85;97645.38;5025374;28;20493;-63
2023/10/03 09:32:15;;;;;;;6.93;4.82;;;25.10;46.50;;;25.81;39.17;97635.97;5026152;28;20549;-62
2023/10/03 09:34:45;;;;;;;;;;;25.10;46.10;;;25.79;39.15;97627.22;5029980;28;20054;-64
2023/10/03 09:37:13;;;;;;;6.60;4.65;;;25.20;45.50;;;25.98;39.16;97639.41;5030247;28;19921;-64
2023/10/03 09:39:50;;;;;;;7.40;5.13;;;25.20;46.50;;;26.01;39.41;97627.13;5030442;28;20057;-63
2023/10/03 09:42:23;;;;;;;6.50;4.97;;;25.20;46.10;;;26.06;38.98;97619.81;5004368;28;20409;-64
2023/10/03 09:44:57;;;;;;;7.05;4.55;;;25.30;46.70;;;26.19;38.76;97614.97;5021959;28;20076;-61
2023/10/03 09:47:34;;;;;;;7.22;5.63;;;25.40;46.00;;;26.19;38.84;97621.28;5023933;28;20412;-62
2023/10/03 09:50:09;;;;;;;6.65;5.00;;;25.50;45.60;;;26.19;39.01;97613.09;5024127;28;20053;-63
2023/10/03 09:52:38;;;;;;;6.13;4.55;;;25.50;45.40;;;26.35;38.55;97614.00;5024788;28;20046;-64
2023/10/03 09:55:26;;;;;;;7.57;4.85;;;25.60;45.20;;;26.39;38.50;97609.66;5022173;28;20042;-64
2023/10/03 09:57:59;;;;;;;7.28;5.20;;;25.70;45.20;;;26.41;38.20;97604.75;5006060;28;20263;-65
2023/10/03 10:00:39;;;;;;;5.55;4.78;;;25.70;44.70;;;26.35;38.63;97614.00;5023302;28;20052;-62
2023/10/03 10:03:19;;;;;;;6.72;4.97;;;25.70;44.70;;;26.43;38.30;97609.97;5025681;28;20054;-64
2023/10/03 10:06:14;;;;;;;5.45;4.07;;;25.70;44.80;;;26.35;38.04;97621.34;5021018;28;20280;-63
2023/10/03 10:08:59;;;;;;;6.47;5.40;;;25.70;45.20;;;26.40;38.36;97613.19;5038911;28;20045;-63
2023/10/03 10:11:30;;;;;;;9.45;5.07;;;25.70;44.80;;;26.49;38.32;97609.72;5023340;28;20432;-63
2023/10/03 10:14:10;;;;;;;9.00;5.20;;;25.70;44.70;;;26.49;38.59;97609.72;5021424;28;20050;-64
2023/10/03 10:17:04;;;;;;;8.82;6.20;;;25.70;44.70;;;26.56;38.57;97608.63;5024207;28;20060;-63
2023/10/03 10:20:08;;;;;;;;;;;25.70;44.70;;;26.55;38.33;97607.00;5016588;28;20060;-65
2023/10/03 10:23:02;;;;;;;;;;;25.70;45.00;;;26.55;38.43;97609.75;5020401;28;19928;-61
2023/10/03 10:25:41;;;;;;;6.45;5.57;;;25.70;45.20;;;26.62;38.63;97613.91;5025260;28;19921;-60
2023/10/03 10:28:18;;;;;;;6.78;4.95;;;25.70;45.40;;;26.63;38.80;97620.19;5031230;28;20048;-59
2023/10/03 10:31:15;;;;;;;7.05;4.93;;;25.80;45.40;;;26.71;38.40;97625.13;5028928;28;20094;-61
2023/10/03 10:33:46;;;;;;;8.48;5.53;;;25.90;44.60;;;26.71;38.51;97623.25;5032630;28;20050;-62